sensor_id;sensor_type;location;lat;lon;timestamp;temperature;humidity
8557;DHT22;4316;53.840;10.762;2022-10-13T00:01:59;8.60;99.90
8557;DHT22;4316;53.840;10.762;2022-10-13T00:04:26;8.70;99.90
8557;DHT22;4316;53.840;10.762;2022-10-13T00:06:52;8.70;99.90
8557;DHT22;4316;53.840;10.762;2022-10-13T00:09:20;8.70;99.90
8557;DHT22;4316;53.840;10.762;2022-10-13T00:11:46;8.70;99.90
8557;DHT22;4316;53.840;10.762;2022-10-13T00:14:11;8.70;99.90
8557;DHT22;4316;53.840;10.762;2022-10-13T00:16:37;8.70;99.90
8557;DHT22;4316;53.840;10.762;2022-10-13T00:19:03;8.80;99.90
8557;DHT22;4316;53.840;10.762;2022-10-13T00:21:29;8.80;99.90
8557;DHT22;4316;53.840;10.762;2022-10-13T00:23:56;8.80;99.90
8557;DHT22;4316;53.840;10.762;2022-10-13T00:26:24;8.80;99.90
8557;DHT22;4316;53.840;10.762;2022-10-13T00:28:50;8.80;99.90
8557;DHT22;4316;53.840;10.762;2022-10-13T00:31:19;8.80;99.90
8557;DHT22;4316;53.840;10.762;2022-10-13T00:33:45;8.80;99.90
8557;DHT22;4316;53.840;10.762;2022-10-13T00:36:11;8.80;99.90
8557;DHT22;4316;53.840;10.762;2022-10-13T00:38:37;8.80;99.90
8557;DHT22;4316;53.840;10.762;2022-10-13T00:41:03;8.80;99.90
8557;DHT22;4316;53.840;10.762;2022-10-13T00:43:53;8.80;99.90
8557;DHT22;4316;53.840;10.762;2022-10-13T00:46:21;8.80;99.90
8557;DHT22;4316;53.840;10.762;2022-10-13T00:48:57;8.80;99.90
8557;DHT22;4316;53.840;10.762;2022-10-13T00:51:25;8.80;99.90
8557;DHT22;4316;53.840;10.762;2022-10-13T00:53:55;8.80;99.90
8557;DHT22;4316;53.840;10.762;2022-10-13T00:56:23;8.80;99.90
8557;DHT22;4316;53.840;10.762;2022-10-13T00:58:51;8.80;99.90
8557;DHT22;4316;53.840;10.762;2022-10-13T01:01:17;8.70;99.90
8557;DHT22;4316;53.840;10.762;2022-10-13T01:03:43;8.70;99.90
8557;DHT22;4316;53.840;10.762;2022-10-13T01:06:10;8.70;99.90
8557;DHT22;4316;53.840;10.762;2022-10-13T01:08:37;8.70;99.90
8557;DHT22;4316;53.840;10.762;2022-10-13T01:14:26;8.90;99.90
8557;DHT22;4316;53.840;10.762;2022-10-13T01:17:13;8.80;99.90
8557;DHT22;4316;53.840;10.762;2022-10-13T01:20:02;8.80;99.90
8557;DHT22;4316;53.840;10.762;2022-10-13T01:22:44;8.80;99.90
8557;DHT22;4316;53.840;10.762;2022-10-13T01:30:57;8.80;99.90
8557;DHT22;4316;53.840;10.762;2022-10-13T01:33:42;8.80;99.90
8557;DHT22;4316;53.840;10.762;2022-10-13T01:36:30;8.80;99.90
8557;DHT22;4316;53.840;10.762;2022-10-13T01:39:26;8.80;99.90
8557;DHT22;4316;53.840;10.762;2022-10-13T01:41:56;8.80;99.90
8557;DHT22;4316;53.840;10.762;2022-10-13T01:44:33;8.80;99.90
8557;DHT22;4316;53.840;10.762;2022-10-13T01:47:00;8.80;99.90
8557;DHT22;4316;53.840;10.762;2022-10-13T01:49:30;8.80;99.90
8557;DHT22;4316;53.840;10.762;2022-10-13T01:52:00;8.90;99.90
8557;DHT22;4316;53.840;10.762;2022-10-13T01:54:27;8.90;99.90
8557;DHT22;4316;53.840;10.762;2022-10-13T01:56:55;8.90;99.90
8557;DHT22;4316;53.840;10.762;2022-10-13T01:59:22;8.90;99.90
8557;DHT22;4316;53.840;10.762;2022-10-13T02:12:38;8.90;99.90
8557;DHT22;4316;53.840;10.762;2022-10-13T02:15:09;8.90;99.90
8557;DHT22;4316;53.840;10.762;2022-10-13T02:17:37;8.90;99.90
8557;DHT22;4316;53.840;10.762;2022-10-13T02:20:05;8.90;99.90
8557;DHT22;4316;53.840;10.762;2022-10-13T02:22:39;8.90;99.90
8557;DHT22;4316;53.840;10.762;2022-10-13T02:25:07;8.90;99.90
8557;DHT22;4316;53.840;10.762;2022-10-13T02:27:33;8.90;99.90
8557;DHT22;4316;53.840;10.762;2022-10-13T02:29:58;8.90;99.90
8557;DHT22;4316;53.840;10.762;2022-10-13T02:32:28;8.90;99.90
8557;DHT22;4316;53.840;10.762;2022-10-13T02:34:54;8.80;99.90
8557;DHT22;4316;53.840;10.762;2022-10-13T02:37:19;8.80;99.90
8557;DHT22;4316;53.840;10.762;2022-10-13T02:39:45;8.80;99.90
8557;DHT22;4316;53.840;10.762;2022-10-13T02:42:12;8.80;99.90
8557;DHT22;4316;53.840;10.762;2022-10-13T02:44:38;8.80;99.90
8557;DHT22;4316;53.840;10.762;2022-10-13T02:47:04;8.80;99.90
8557;DHT22;4316;53.840;10.762;2022-10-13T02:49:30;8.80;99.90
8557;DHT22;4316;53.840;10.762;2022-10-13T02:51:56;8.70;99.90
8557;DHT22;4316;53.840;10.762;2022-10-13T02:54:21;8.70;99.90
8557;DHT22;4316;53.840;10.762;2022-10-13T02:56:47;8.70;99.90
8557;DHT22;4316;53.840;10.762;2022-10-13T02:59:13;8.70;99.90
8557;DHT22;4316;53.840;10.762;2022-10-13T03:01:39;8.70;99.90
8557;DHT22;4316;53.840;10.762;2022-10-13T03:04:10;8.70;99.90
8557;DHT22;4316;53.840;10.762;2022-10-13T03:06:36;8.60;99.90
8557;DHT22;4316;53.840;10.762;2022-10-13T03:09:02;8.60;99.90
8557;DHT22;4316;53.840;10.762;2022-10-13T03:11:28;8.50;99.90
8557;DHT22;4316;53.840;10.762;2022-10-13T03:13:55;8.50;99.90
8557;DHT22;4316;53.840;10.762;2022-10-13T03:16:21;8.50;99.90
8557;DHT22;4316;53.840;10.762;2022-10-13T03:18:47;8.50;99.90
8557;DHT22;4316;53.840;10.762;2022-10-13T03:21:13;8.50;99.90
8557;DHT22;4316;53.840;10.762;2022-10-13T03:23:38;8.50;99.90
8557;DHT22;4316;53.840;10.762;2022-10-13T03:26:04;8.50;99.90
8557;DHT22;4316;53.840;10.762;2022-10-13T03:28:30;8.40;99.90
8557;DHT22;4316;53.840;10.762;2022-10-13T03:31:10;8.40;99.90
8557;DHT22;4316;53.840;10.762;2022-10-13T03:33:36;8.40;99.90
8557;DHT22;4316;53.840;10.762;2022-10-13T03:36:04;8.40;99.90
8557;DHT22;4316;53.840;10.762;2022-10-13T03:38:31;8.30;99.90
8557;DHT22;4316;53.840;10.762;2022-10-13T03:40:57;8.30;99.90
8557;DHT22;4316;53.840;10.762;2022-10-13T03:43:24;8.30;99.90
8557;DHT22;4316;53.840;10.762;2022-10-13T03:45:56;8.30;99.90
8557;DHT22;4316;53.840;10.762;2022-10-13T03:48:23;8.30;99.90
8557;DHT22;4316;53.840;10.762;2022-10-13T03:50:50;8.30;99.90
8557;DHT22;4316;53.840;10.762;2022-10-13T03:53:16;8.30;99.90
8557;DHT22;4316;53.840;10.762;2022-10-13T03:55:42;8.20;99.90
8557;DHT22;4316;53.840;10.762;2022-10-13T03:58:12;8.20;99.90
8557;DHT22;4316;53.840;10.762;2022-10-13T04:00:41;8.20;99.90
8557;DHT22;4316;53.840;10.762;2022-10-13T04:03:07;8.20;99.90
8557;DHT22;4316;53.840;10.762;2022-10-13T04:05:35;8.20;99.90
8557;DHT22;4316;53.840;10.762;2022-10-13T04:08:01;8.10;99.90
8557;DHT22;4316;53.840;10.762;2022-10-13T04:10:27;8.10;99.90
8557;DHT22;4316;53.840;10.762;2022-10-13T04:12:53;8.10;99.90
8557;DHT22;4316;53.840;10.762;2022-10-13T04:15:18;8.10;99.90
8557;DHT22;4316;53.840;10.762;2022-10-13T04:17:44;8.20;99.90
8557;DHT22;4316;53.840;10.762;2022-10-13T04:20:10;8.20;99.90
8557;DHT22;4316;53.840;10.762;2022-10-13T04:22:36;8.20;99.90
8557;DHT22;4316;53.840;10.762;2022-10-13T04:25:02;8.20;99.90
8557;DHT22;4316;53.840;10.762;2022-10-13T04:27:28;8.20;99.90
8557;DHT22;4316;53.840;10.762;2022-10-13T04:29:55;8.20;99.90
8557;DHT22;4316;53.840;10.762;2022-10-13T04:32:21;8.10;99.90
8557;DHT22;4316;53.840;10.762;2022-10-13T04:34:46;8.00;99.90
8557;DHT22;4316;53.840;10.762;2022-10-13T04:37:12;8.10;99.90
8557;DHT22;4316;53.840;10.762;2022-10-13T04:39:38;8.10;99.90
8557;DHT22;4316;53.840;10.762;2022-10-13T04:42:04;8.10;99.90
8557;DHT22;4316;53.840;10.762;2022-10-13T04:44:30;8.10;99.90
8557;DHT22;4316;53.840;10.762;2022-10-13T04:46:56;8.10;99.90
8557;DHT22;4316;53.840;10.762;2022-10-13T04:49:22;8.20;99.90
8557;DHT22;4316;53.840;10.762;2022-10-13T04:51:48;8.20;99.90
8557;DHT22;4316;53.840;10.762;2022-10-13T04:54:14;8.30;99.90
8557;DHT22;4316;53.840;10.762;2022-10-13T04:56:42;8.30;99.90
8557;DHT22;4316;53.840;10.762;2022-10-13T04:59:08;8.30;99.90
8557;DHT22;4316;53.840;10.762;2022-10-13T05:01:34;8.20;99.90
8557;DHT22;4316;53.840;10.762;2022-10-13T05:04:01;8.30;99.90
8557;DHT22;4316;53.840;10.762;2022-10-13T05:06:35;8.20;99.90
8557;DHT22;4316;53.840;10.762;2022-10-13T05:09:02;8.20;99.90
8557;DHT22;4316;53.840;10.762;2022-10-13T05:11:28;8.20;99.90
8557;DHT22;4316;53.840;10.762;2022-10-13T05:13:55;8.20;99.90
8557;DHT22;4316;53.840;10.762;2022-10-13T05:16:22;8.10;99.90
8557;DHT22;4316;53.840;10.762;2022-10-13T05:18:50;8.20;99.90
8557;DHT22;4316;53.840;10.762;2022-10-13T05:21:21;8.20;99.90
8557;DHT22;4316;53.840;10.762;2022-10-13T05:23:47;8.30;99.90
8557;DHT22;4316;53.840;10.762;2022-10-13T05:26:15;8.30;99.90
8557;DHT22;4316;53.840;10.762;2022-10-13T05:28:41;8.30;99.90
8557;DHT22;4316;53.840;10.762;2022-10-13T05:31:14;8.30;99.90
8557;DHT22;4316;53.840;10.762;2022-10-13T05:33:44;8.30;99.90
8557;DHT22;4316;53.840;10.762;2022-10-13T05:36:12;8.30;99.90
8557;DHT22;4316;53.840;10.762;2022-10-13T05:38:39;8.40;99.90
8557;DHT22;4316;53.840;10.762;2022-10-13T05:41:07;8.40;99.90
8557;DHT22;4316;53.840;10.762;2022-10-13T05:43:33;8.40;99.90
8557;DHT22;4316;53.840;10.762;2022-10-13T05:45:59;8.50;99.90
8557;DHT22;4316;53.840;10.762;2022-10-13T05:48:27;8.50;99.90
8557;DHT22;4316;53.840;10.762;2022-10-13T05:50:55;8.50;99.90
8557;DHT22;4316;53.840;10.762;2022-10-13T05:53:24;8.50;99.90
8557;DHT22;4316;53.840;10.762;2022-10-13T05:55:52;8.40;99.90
8557;DHT22;4316;53.840;10.762;2022-10-13T05:58:19;8.40;99.90
8557;DHT22;4316;53.840;10.762;2022-10-13T06:00:45;8.40;99.90
8557;DHT22;4316;53.840;10.762;2022-10-13T06:03:18;8.40;99.90
8557;DHT22;4316;53.840;10.762;2022-10-13T06:05:45;8.30;99.90
8557;DHT22;4316;53.840;10.762;2022-10-13T06:08:15;8.40;99.90
8557;DHT22;4316;53.840;10.762;2022-10-13T06:10:42;8.40;99.90
8557;DHT22;4316;53.840;10.762;2022-10-13T06:13:08;8.50;99.90
8557;DHT22;4316;53.840;10.762;2022-10-13T06:15:34;8.50;99.90
8557;DHT22;4316;53.840;10.762;2022-10-13T06:18:01;8.60;99.90
8557;DHT22;4316;53.840;10.762;2022-10-13T06:20:26;8.60;99.90
8557;DHT22;4316;53.840;10.762;2022-10-13T06:22:55;8.70;99.90
8557;DHT22;4316;53.840;10.762;2022-10-13T06:25:21;8.70;99.90
8557;DHT22;4316;53.840;10.762;2022-10-13T06:27:47;8.70;99.90
8557;DHT22;4316;53.840;10.762;2022-10-13T06:30:13;8.70;99.90
8557;DHT22;4316;53.840;10.762;2022-10-13T06:32:39;8.80;99.90
8557;DHT22;4316;53.840;10.762;2022-10-13T06:35:06;8.80;99.90
8557;DHT22;4316;53.840;10.762;2022-10-13T06:37:31;8.90;99.90
8557;DHT22;4316;53.840;10.762;2022-10-13T06:39:57;9.00;99.90
8557;DHT22;4316;53.840;10.762;2022-10-13T06:42:23;9.00;99.90
8557;DHT22;4316;53.840;10.762;2022-10-13T06:45:07;9.10;99.90
8557;DHT22;4316;53.840;10.762;2022-10-13T06:47:33;9.10;99.90
8557;DHT22;4316;53.840;10.762;2022-10-13T06:49:58;9.20;99.90
8557;DHT22;4316;53.840;10.762;2022-10-13T06:52:24;9.20;99.90
8557;DHT22;4316;53.840;10.762;2022-10-13T06:54:50;9.20;99.90
8557;DHT22;4316;53.840;10.762;2022-10-13T06:57:16;9.20;99.90
8557;DHT22;4316;53.840;10.762;2022-10-13T06:59:42;9.20;99.90
8557;DHT22;4316;53.840;10.762;2022-10-13T07:02:09;9.10;99.90
8557;DHT22;4316;53.840;10.762;2022-10-13T07:04:35;9.10;99.90
8557;DHT22;4316;53.840;10.762;2022-10-13T07:07:01;9.10;99.90
8557;DHT22;4316;53.840;10.762;2022-10-13T07:09:27;9.20;99.90
8557;DHT22;4316;53.840;10.762;2022-10-13T07:11:52;9.30;99.90
8557;DHT22;4316;53.840;10.762;2022-10-13T07:14:18;9.40;99.90
8557;DHT22;4316;53.840;10.762;2022-10-13T07:16:46;9.50;99.90
8557;DHT22;4316;53.840;10.762;2022-10-13T07:19:11;9.70;99.90
8557;DHT22;4316;53.840;10.762;2022-10-13T07:21:40;9.80;99.90
8557;DHT22;4316;53.840;10.762;2022-10-13T07:24:05;9.90;99.90
8557;DHT22;4316;53.840;10.762;2022-10-13T07:26:32;10.00;99.90
8557;DHT22;4316;53.840;10.762;2022-10-13T07:28:59;10.10;99.90
8557;DHT22;4316;53.840;10.762;2022-10-13T07:31:25;10.10;99.90
8557;DHT22;4316;53.840;10.762;2022-10-13T07:33:51;10.10;99.90
8557;DHT22;4316;53.840;10.762;2022-10-13T07:36:18;10.10;99.90
8557;DHT22;4316;53.840;10.762;2022-10-13T07:38:45;10.20;99.90
8557;DHT22;4316;53.840;10.762;2022-10-13T07:41:12;10.20;99.90
8557;DHT22;4316;53.840;10.762;2022-10-13T07:43:38;10.20;99.90
8557;DHT22;4316;53.840;10.762;2022-10-13T07:46:07;10.20;99.90
8557;DHT22;4316;53.840;10.762;2022-10-13T07:48:33;10.30;99.90
8557;DHT22;4316;53.840;10.762;2022-10-13T07:51:09;10.40;99.90
8557;DHT22;4316;53.840;10.762;2022-10-13T07:53:36;10.40;99.90
8557;DHT22;4316;53.840;10.762;2022-10-13T07:56:04;10.40;99.90
8557;DHT22;4316;53.840;10.762;2022-10-13T07:58:30;10.40;99.90
8557;DHT22;4316;53.840;10.762;2022-10-13T08:00:57;10.40;99.90
8557;DHT22;4316;53.840;10.762;2022-10-13T08:03:25;10.50;99.90
8557;DHT22;4316;53.840;10.762;2022-10-13T08:05:51;10.60;99.90
8557;DHT22;4316;53.840;10.762;2022-10-13T08:08:17;10.70;99.90
8557;DHT22;4316;53.840;10.762;2022-10-13T08:10:43;10.70;99.90
8557;DHT22;4316;53.840;10.762;2022-10-13T08:13:12;10.90;99.90
8557;DHT22;4316;53.840;10.762;2022-10-13T08:15:42;11.20;99.90
8557;DHT22;4316;53.840;10.762;2022-10-13T08:18:09;11.50;99.90
8557;DHT22;4316;53.840;10.762;2022-10-13T08:20:43;11.80;99.90
8557;DHT22;4316;53.840;10.762;2022-10-13T08:23:11;12.00;99.90
8557;DHT22;4316;53.840;10.762;2022-10-13T08:25:41;12.00;99.90
8557;DHT22;4316;53.840;10.762;2022-10-13T08:28:23;11.80;99.90
8557;DHT22;4316;53.840;10.762;2022-10-13T08:30:50;11.50;99.90
8557;DHT22;4316;53.840;10.762;2022-10-13T08:33:18;11.40;99.90
8557;DHT22;4316;53.840;10.762;2022-10-13T08:35:45;11.30;99.90
8557;DHT22;4316;53.840;10.762;2022-10-13T08:38:11;11.30;99.90
8557;DHT22;4316;53.840;10.762;2022-10-13T08:40:38;11.30;99.90
8557;DHT22;4316;53.840;10.762;2022-10-13T08:43:07;11.20;99.90
8557;DHT22;4316;53.840;10.762;2022-10-13T08:45:34;11.20;99.90
8557;DHT22;4316;53.840;10.762;2022-10-13T08:48:14;11.30;99.90
8557;DHT22;4316;53.840;10.762;2022-10-13T08:50:43;11.40;99.90
8557;DHT22;4316;53.840;10.762;2022-10-13T08:55:51;11.70;99.90
8557;DHT22;4316;53.840;10.762;2022-10-13T08:58:24;12.00;99.90
8557;DHT22;4316;53.840;10.762;2022-10-13T09:03:31;12.60;99.90
8557;DHT22;4316;53.840;10.762;2022-10-13T09:08:55;12.80;99.90
8557;DHT22;4316;53.840;10.762;2022-10-13T09:11:21;12.60;99.90
8557;DHT22;4316;53.840;10.762;2022-10-13T09:13:53;12.60;99.90
8557;DHT22;4316;53.840;10.762;2022-10-13T09:16:31;12.50;99.90
8557;DHT22;4316;53.840;10.762;2022-10-13T09:21:55;12.60;99.90
8557;DHT22;4316;53.840;10.762;2022-10-13T09:24:23;12.60;99.90
8557;DHT22;4316;53.840;10.762;2022-10-13T09:26:51;12.70;99.90
8557;DHT22;4316;53.840;10.762;2022-10-13T09:29:29;13.00;99.90
8557;DHT22;4316;53.840;10.762;2022-10-13T09:32:20;13.30;99.90
8557;DHT22;4316;53.840;10.762;2022-10-13T09:34:48;13.30;99.90
8557;DHT22;4316;53.840;10.762;2022-10-13T09:37:21;13.10;99.90
8557;DHT22;4316;53.840;10.762;2022-10-13T09:40:11;13.20;99.90
8557;DHT22;4316;53.840;10.762;2022-10-13T09:42:37;13.20;99.90
8557;DHT22;4316;53.840;10.762;2022-10-13T09:45:17;13.20;99.90
8557;DHT22;4316;53.840;10.762;2022-10-13T09:47:58;13.20;99.90
8557;DHT22;4316;53.840;10.762;2022-10-13T09:50:28;13.20;99.90
8557;DHT22;4316;53.840;10.762;2022-10-13T09:56:07;13.90;99.90
8557;DHT22;4316;53.840;10.762;2022-10-13T09:58:36;14.20;99.90
8557;DHT22;4316;53.840;10.762;2022-10-13T10:01:05;14.50;99.90
8557;DHT22;4316;53.840;10.762;2022-10-13T10:03:34;14.70;99.90
8557;DHT22;4316;53.840;10.762;2022-10-13T10:06:07;14.60;99.90
8557;DHT22;4316;53.840;10.762;2022-10-13T10:11:30;14.30;99.90
8557;DHT22;4316;53.840;10.762;2022-10-13T10:14:04;14.30;99.90
8557;DHT22;4316;53.840;10.762;2022-10-13T10:16:45;14.20;99.90
8557;DHT22;4316;53.840;10.762;2022-10-13T10:21:52;14.30;99.90
8557;DHT22;4316;53.840;10.762;2022-10-13T10:24:36;14.40;99.90
8557;DHT22;4316;53.840;10.762;2022-10-13T10:27:13;14.50;99.90
8557;DHT22;4316;53.840;10.762;2022-10-13T10:45:46;14.40;99.90
8557;DHT22;4316;53.840;10.762;2022-10-13T10:48:39;14.50;99.90
8557;DHT22;4316;53.840;10.762;2022-10-13T10:51:07;14.50;99.90
8557;DHT22;4316;53.840;10.762;2022-10-13T10:56:48;14.60;99.90
8557;DHT22;4316;53.840;10.762;2022-10-13T11:02:37;14.70;99.90
8557;DHT22;4316;53.840;10.762;2022-10-13T11:05:07;14.80;99.90
8557;DHT22;4316;53.840;10.762;2022-10-13T11:12:24;15.10;99.90
8557;DHT22;4316;53.840;10.762;2022-10-13T11:17:33;15.30;99.90
8557;DHT22;4316;53.840;10.762;2022-10-13T11:27:59;15.50;99.90
8557;DHT22;4316;53.840;10.762;2022-10-13T11:30:52;15.60;99.90
8557;DHT22;4316;53.840;10.762;2022-10-13T11:42:11;16.20;99.90
8557;DHT22;4316;53.840;10.762;2022-10-13T11:55:31;16.60;99.90
8557;DHT22;4316;53.840;10.762;2022-10-13T11:58:15;16.50;99.90
8557;DHT22;4316;53.840;10.762;2022-10-13T12:00:55;16.40;99.90
8557;DHT22;4316;53.840;10.762;2022-10-13T12:03:30;16.50;99.90
8557;DHT22;4316;53.840;10.762;2022-10-13T12:05:59;16.50;99.90
8557;DHT22;4316;53.840;10.762;2022-10-13T12:08:27;16.30;99.90
8557;DHT22;4316;53.840;10.762;2022-10-13T12:10:54;16.30;99.90
8557;DHT22;4316;53.840;10.762;2022-10-13T12:13:27;16.30;99.90
8557;DHT22;4316;53.840;10.762;2022-10-13T12:16:05;16.50;99.90
8557;DHT22;4316;53.840;10.762;2022-10-13T12:18:37;16.70;99.90
8557;DHT22;4316;53.840;10.762;2022-10-13T12:21:18;16.70;99.90
8557;DHT22;4316;53.840;10.762;2022-10-13T12:23:47;16.80;99.90
8557;DHT22;4316;53.840;10.762;2022-10-13T12:26:15;16.90;99.90
8557;DHT22;4316;53.840;10.762;2022-10-13T12:28:51;17.10;99.90
8557;DHT22;4316;53.840;10.762;2022-10-13T12:31:24;17.30;99.90
8557;DHT22;4316;53.840;10.762;2022-10-13T12:34:00;17.30;99.90
8557;DHT22;4316;53.840;10.762;2022-10-13T12:36:34;17.20;99.90
8557;DHT22;4316;53.840;10.762;2022-10-13T12:39:03;17.30;99.90
8557;DHT22;4316;53.840;10.762;2022-10-13T12:41:33;17.30;99.90
8557;DHT22;4316;53.840;10.762;2022-10-13T12:43:59;17.20;99.90
8557;DHT22;4316;53.840;10.762;2022-10-13T12:46:45;17.10;99.90
8557;DHT22;4316;53.840;10.762;2022-10-13T12:49:23;17.10;99.90
8557;DHT22;4316;53.840;10.762;2022-10-13T12:54:31;17.20;99.90
8557;DHT22;4316;53.840;10.762;2022-10-13T12:57:03;17.20;99.90
8557;DHT22;4316;53.840;10.762;2022-10-13T12:59:31;17.20;99.90
8557;DHT22;4316;53.840;10.762;2022-10-13T13:02:00;17.10;99.90
8557;DHT22;4316;53.840;10.762;2022-10-13T13:04:30;17.10;99.90
8557;DHT22;4316;53.840;10.762;2022-10-13T13:07:05;17.10;99.90
8557;DHT22;4316;53.840;10.762;2022-10-13T13:10:20;17.00;99.90
8557;DHT22;4316;53.840;10.762;2022-10-13T13:12:46;17.00;99.90
8557;DHT22;4316;53.840;10.762;2022-10-13T13:15:20;16.90;99.90
8557;DHT22;4316;53.840;10.762;2022-10-13T13:17:46;16.80;99.90
8557;DHT22;4316;53.840;10.762;2022-10-13T13:20:38;16.70;99.90
8557;DHT22;4316;53.840;10.762;2022-10-13T13:23:04;16.70;99.90
8557;DHT22;4316;53.840;10.762;2022-10-13T13:25:30;16.60;99.90
8557;DHT22;4316;53.840;10.762;2022-10-13T13:27:55;16.60;99.90
8557;DHT22;4316;53.840;10.762;2022-10-13T13:30:22;16.50;99.90
8557;DHT22;4316;53.840;10.762;2022-10-13T13:32:48;16.60;99.90
8557;DHT22;4316;53.840;10.762;2022-10-13T13:35:14;16.70;99.90
8557;DHT22;4316;53.840;10.762;2022-10-13T13:37:46;16.70;99.90
8557;DHT22;4316;53.840;10.762;2022-10-13T13:40:16;16.70;99.90
8557;DHT22;4316;53.840;10.762;2022-10-13T13:42:42;16.70;99.90
8557;DHT22;4316;53.840;10.762;2022-10-13T13:45:12;16.70;99.90
8557;DHT22;4316;53.840;10.762;2022-10-13T13:47:38;16.80;99.90
8557;DHT22;4316;53.840;10.762;2022-10-13T13:50:16;16.80;99.90
8557;DHT22;4316;53.840;10.762;2022-10-13T13:52:46;16.80;99.90
8557;DHT22;4316;53.840;10.762;2022-10-13T13:55:12;16.70;99.90
8557;DHT22;4316;53.840;10.762;2022-10-13T13:57:42;16.60;99.90
8557;DHT22;4316;53.840;10.762;2022-10-13T14:00:11;16.50;99.90
8557;DHT22;4316;53.840;10.762;2022-10-13T14:02:37;16.40;99.90
8557;DHT22;4316;53.840;10.762;2022-10-13T14:05:03;16.30;99.90
8557;DHT22;4316;53.840;10.762;2022-10-13T14:07:30;16.30;99.90
8557;DHT22;4316;53.840;10.762;2022-10-13T14:09:56;16.30;99.90
8557;DHT22;4316;53.840;10.762;2022-10-13T14:12:22;16.30;99.90
8557;DHT22;4316;53.840;10.762;2022-10-13T14:14:48;16.30;99.90
8557;DHT22;4316;53.840;10.762;2022-10-13T14:17:16;16.40;99.90
8557;DHT22;4316;53.840;10.762;2022-10-13T14:19:42;16.40;99.90
8557;DHT22;4316;53.840;10.762;2022-10-13T14:22:08;16.40;99.90
8557;DHT22;4316;53.840;10.762;2022-10-13T14:24:34;16.40;99.90
8557;DHT22;4316;53.840;10.762;2022-10-13T14:27:00;16.40;99.90
8557;DHT22;4316;53.840;10.762;2022-10-13T14:29:26;16.40;99.90
8557;DHT22;4316;53.840;10.762;2022-10-13T14:31:52;16.40;99.90
8557;DHT22;4316;53.840;10.762;2022-10-13T14:34:18;16.40;99.90
8557;DHT22;4316;53.840;10.762;2022-10-13T14:36:45;16.40;99.90
8557;DHT22;4316;53.840;10.762;2022-10-13T14:39:11;16.30;99.90
8557;DHT22;4316;53.840;10.762;2022-10-13T14:41:37;16.30;99.90
8557;DHT22;4316;53.840;10.762;2022-10-13T14:44:03;16.30;99.90
8557;DHT22;4316;53.840;10.762;2022-10-13T14:46:29;16.30;99.90
8557;DHT22;4316;53.840;10.762;2022-10-13T14:48:55;16.30;99.90
8557;DHT22;4316;53.840;10.762;2022-10-13T14:51:23;16.20;99.90
8557;DHT22;4316;53.840;10.762;2022-10-13T14:53:49;16.20;99.90
8557;DHT22;4316;53.840;10.762;2022-10-13T14:56:24;16.30;99.90
8557;DHT22;4316;53.840;10.762;2022-10-13T14:58:54;16.20;99.90
8557;DHT22;4316;53.840;10.762;2022-10-13T15:01:23;16.20;99.90
8557;DHT22;4316;53.840;10.762;2022-10-13T15:03:49;16.20;99.90
8557;DHT22;4316;53.840;10.762;2022-10-13T15:06:18;16.10;99.90
8557;DHT22;4316;53.840;10.762;2022-10-13T15:08:45;16.10;99.90
8557;DHT22;4316;53.840;10.762;2022-10-13T15:11:11;16.10;99.90
8557;DHT22;4316;53.840;10.762;2022-10-13T15:13:37;16.00;99.90
8557;DHT22;4316;53.840;10.762;2022-10-13T15:16:03;16.00;99.90
8557;DHT22;4316;53.840;10.762;2022-10-13T15:18:31;16.00;99.90
8557;DHT22;4316;53.840;10.762;2022-10-13T15:21:00;16.00;99.90
8557;DHT22;4316;53.840;10.762;2022-10-13T15:23:26;16.00;99.90
8557;DHT22;4316;53.840;10.762;2022-10-13T15:25:54;16.10;99.90
8557;DHT22;4316;53.840;10.762;2022-10-13T15:28:22;16.00;99.90
8557;DHT22;4316;53.840;10.762;2022-10-13T15:30:48;16.00;99.90
8557;DHT22;4316;53.840;10.762;2022-10-13T15:33:15;16.20;99.90
8557;DHT22;4316;53.840;10.762;2022-10-13T15:35:41;16.30;99.90
8557;DHT22;4316;53.840;10.762;2022-10-13T15:38:10;16.50;99.90
8557;DHT22;4316;53.840;10.762;2022-10-13T15:40:40;16.50;99.90
8557;DHT22;4316;53.840;10.762;2022-10-13T15:43:07;16.60;99.90
8557;DHT22;4316;53.840;10.762;2022-10-13T15:45:33;16.60;99.90
8557;DHT22;4316;53.840;10.762;2022-10-13T15:47:59;16.60;99.90
8557;DHT22;4316;53.840;10.762;2022-10-13T15:50:25;16.70;99.90
8557;DHT22;4316;53.840;10.762;2022-10-13T15:52:51;16.70;99.90
8557;DHT22;4316;53.840;10.762;2022-10-13T15:55:17;16.70;99.90
8557;DHT22;4316;53.840;10.762;2022-10-13T15:57:44;16.70;99.90
8557;DHT22;4316;53.840;10.762;2022-10-13T16:00:11;16.70;99.90
8557;DHT22;4316;53.840;10.762;2022-10-13T16:02:41;16.70;99.90
8557;DHT22;4316;53.840;10.762;2022-10-13T16:05:09;16.80;99.90
8557;DHT22;4316;53.840;10.762;2022-10-13T16:07:35;16.70;99.90
8557;DHT22;4316;53.840;10.762;2022-10-13T16:10:01;16.70;99.90
8557;DHT22;4316;53.840;10.762;2022-10-13T16:12:27;16.70;99.90
8557;DHT22;4316;53.840;10.762;2022-10-13T16:14:53;16.60;99.90
8557;DHT22;4316;53.840;10.762;2022-10-13T16:17:19;16.60;99.90
8557;DHT22;4316;53.840;10.762;2022-10-13T16:19:48;16.60;99.90
8557;DHT22;4316;53.840;10.762;2022-10-13T16:22:14;16.50;99.90
8557;DHT22;4316;53.840;10.762;2022-10-13T16:24:40;16.50;99.90
8557;DHT22;4316;53.840;10.762;2022-10-13T16:27:07;16.40;99.90
8557;DHT22;4316;53.840;10.762;2022-10-13T16:29:32;16.50;99.90
8557;DHT22;4316;53.840;10.762;2022-10-13T16:31:58;16.40;99.90
8557;DHT22;4316;53.840;10.762;2022-10-13T16:34:27;16.40;99.90
8557;DHT22;4316;53.840;10.762;2022-10-13T16:36:53;16.50;99.90
8557;DHT22;4316;53.840;10.762;2022-10-13T16:39:19;16.50;99.90
8557;DHT22;4316;53.840;10.762;2022-10-13T16:41:45;16.60;99.90
8557;DHT22;4316;53.840;10.762;2022-10-13T16:44:16;16.60;99.90
8557;DHT22;4316;53.840;10.762;2022-10-13T16:46:43;16.50;99.90
8557;DHT22;4316;53.840;10.762;2022-10-13T16:49:09;16.50;99.90
8557;DHT22;4316;53.840;10.762;2022-10-13T16:51:35;16.50;99.90
8557;DHT22;4316;53.840;10.762;2022-10-13T16:54:01;16.50;99.90
8557;DHT22;4316;53.840;10.762;2022-10-13T16:56:27;16.50;99.90
8557;DHT22;4316;53.840;10.762;2022-10-13T16:59:02;16.50;99.90
8557;DHT22;4316;53.840;10.762;2022-10-13T17:01:28;16.40;99.90
8557;DHT22;4316;53.840;10.762;2022-10-13T17:03:55;16.40;99.90
8557;DHT22;4316;53.840;10.762;2022-10-13T17:06:23;16.40;99.90
8557;DHT22;4316;53.840;10.762;2022-10-13T17:08:53;16.40;99.90
8557;DHT22;4316;53.840;10.762;2022-10-13T17:11:25;16.40;99.90
8557;DHT22;4316;53.840;10.762;2022-10-13T17:13:52;16.40;99.90
8557;DHT22;4316;53.840;10.762;2022-10-13T17:16:18;16.30;99.90
8557;DHT22;4316;53.840;10.762;2022-10-13T17:18:44;16.30;99.90
8557;DHT22;4316;53.840;10.762;2022-10-13T17:21:13;16.30;99.90
8557;DHT22;4316;53.840;10.762;2022-10-13T17:23:39;16.30;99.90
8557;DHT22;4316;53.840;10.762;2022-10-13T17:26:08;16.20;99.90
8557;DHT22;4316;53.840;10.762;2022-10-13T17:28:35;16.20;99.90
8557;DHT22;4316;53.840;10.762;2022-10-13T17:31:12;16.20;99.90
8557;DHT22;4316;53.840;10.762;2022-10-13T17:33:39;16.10;99.90
8557;DHT22;4316;53.840;10.762;2022-10-13T17:36:12;16.10;99.90
8557;DHT22;4316;53.840;10.762;2022-10-13T17:38:39;16.10;99.90
8557;DHT22;4316;53.840;10.762;2022-10-13T17:41:06;16.10;99.90
8557;DHT22;4316;53.840;10.762;2022-10-13T17:43:34;16.10;99.90